createdAt,value
2023-05-22T00:02:15.023Z,2.90
2023-05-22T00:04:42.935Z,2.90
2023-05-22T00:07:10.450Z,2.65
2023-05-22T00:09:37.922Z,2.80
2023-05-22T00:12:06.115Z,2.42
2023-05-22T00:14:33.641Z,2.17
2023-05-22T00:17:01.176Z,2.23
2023-05-22T00:19:30.588Z,2.50
2023-05-22T00:21:58.358Z,2.58
2023-05-22T00:24:25.922Z,2.78
2023-05-22T00:26:53.797Z,2.67
2023-05-22T00:29:21.589Z,2.33
2023-05-22T00:31:49.126Z,2.42
2023-05-22T00:34:16.993Z,2.80
2023-05-22T00:36:44.604Z,2.53
2023-05-22T00:39:12.140Z,2.45
2023-05-22T00:41:40.168Z,2.77
2023-05-22T00:44:08.200Z,2.65
2023-05-22T00:46:36.591Z,2.85
2023-05-22T00:49:05.227Z,2.33
2023-05-22T00:51:33.267Z,2.30
2023-05-22T00:54:00.897Z,2.87
2023-05-22T00:56:29.453Z,2.65
2023-05-22T00:58:57.058Z,2.40
2023-05-22T01:01:26.624Z,3.25
2023-05-22T01:03:55.687Z,2.60
2023-05-22T01:06:23.413Z,2.33
2023-05-22T01:08:51.042Z,2.47
2023-05-22T01:11:26.094Z,2.40
2023-05-22T01:14:18.353Z,2.42
2023-05-22T01:16:54.626Z,2.28
2023-05-22T01:19:35.677Z,2.63
2023-05-22T01:22:36.111Z,2.15
2023-05-22T01:25:38.921Z,2.30
2023-05-22T01:28:22.035Z,2.20
2023-05-22T01:30:57.905Z,2.17
2023-05-22T01:33:28.892Z,2.13
2023-05-22T01:35:57.984Z,1.90
2023-05-22T01:38:25.973Z,1.90
2023-05-22T01:40:54.206Z,1.75
2023-05-22T01:43:21.828Z,2.10
2023-05-22T01:45:49.817Z,2.40
2023-05-22T01:48:17.405Z,2.08
2023-05-22T01:50:48.586Z,1.52
2023-05-22T01:53:34.067Z,1.98
2023-05-22T01:56:07.979Z,2.20
2023-05-22T01:58:44.848Z,2.03
2023-05-22T02:01:14.429Z,2.08
2023-05-22T02:03:42.623Z,2.40
2023-05-22T02:06:13.443Z,2.05
2023-05-22T02:08:42.050Z,1.83
2023-05-22T02:11:11.323Z,2.20
2023-05-22T02:13:39.110Z,1.87
2023-05-22T02:16:07.628Z,2.22
2023-05-22T02:18:35.578Z,1.80
2023-05-22T02:21:03.346Z,2.80
2023-05-22T02:23:32.755Z,2.13
2023-05-22T02:26:00.581Z,2.10
2023-05-22T02:28:28.144Z,2.35
2023-05-22T02:30:55.925Z,2.35
2023-05-22T02:33:23.561Z,1.85
2023-05-22T02:35:51.294Z,1.83
2023-05-22T02:38:19.066Z,2.58
2023-05-22T02:40:47.127Z,2.00
2023-05-22T02:43:15.468Z,1.95
2023-05-22T02:45:43.368Z,1.92
2023-05-22T02:48:11.313Z,1.80
2023-05-22T02:50:39.064Z,2.20
2023-05-22T02:53:07.878Z,1.85
2023-05-22T02:55:35.442Z,2.10
2023-05-22T02:58:03.511Z,2.35
2023-05-22T03:00:31.332Z,2.03
2023-05-22T03:02:58.969Z,1.80
2023-05-22T03:05:26.448Z,1.90
2023-05-22T03:07:54.305Z,2.05
2023-05-22T03:10:23.181Z,2.15
2023-05-22T03:12:54.435Z,1.87
2023-05-22T03:15:22.690Z,2.00
2023-05-22T03:17:51.347Z,2.30
2023-05-22T03:20:19.005Z,2.42
2023-05-22T03:22:46.867Z,2.30
2023-05-22T03:25:14.702Z,1.80
2023-05-22T03:27:42.262Z,2.30
2023-05-22T03:30:11.030Z,2.20
2023-05-22T03:32:39.084Z,1.70
2023-05-22T03:35:07.270Z,2.15
2023-05-22T03:37:35.280Z,2.23
2023-05-22T03:40:04.481Z,1.90
2023-05-22T03:42:32.014Z,1.85
2023-05-22T03:44:59.819Z,1.95
2023-05-22T03:47:27.493Z,1.90
2023-05-22T03:49:55.026Z,2.07
2023-05-22T03:52:23.280Z,2.00
2023-05-22T03:54:50.884Z,2.12
2023-05-22T03:57:20.006Z,1.90
2023-05-22T03:59:47.914Z,1.73
2023-05-22T04:02:16.759Z,1.87
2023-05-22T04:04:47.651Z,1.90
2023-05-22T04:07:15.192Z,1.77
2023-05-22T04:09:42.811Z,2.20
2023-05-22T04:12:10.893Z,2.05
2023-05-22T04:14:38.381Z,2.03
2023-05-22T04:17:06.080Z,2.12
2023-05-22T04:19:33.959Z,1.90
2023-05-22T04:22:01.565Z,2.60
2023-05-22T04:24:29.030Z,2.03
2023-05-22T04:27:00.368Z,1.77
2023-05-22T04:29:28.603Z,2.08
2023-05-22T04:31:56.150Z,1.98
2023-05-22T04:34:24.568Z,2.12
2023-05-22T04:36:52.784Z,1.80
2023-05-22T04:39:20.468Z,1.90
2023-05-22T04:41:49.153Z,1.95
2023-05-22T04:44:17.029Z,1.75
2023-05-22T04:46:45.193Z,2.33
2023-05-22T04:49:13.644Z,2.00
2023-05-22T04:51:41.236Z,2.23
2023-05-22T04:54:08.826Z,1.98
2023-05-22T04:56:37.399Z,2.00
2023-05-22T04:59:09.297Z,2.08
2023-05-22T05:01:38.424Z,2.50
2023-05-22T05:04:06.286Z,1.80
2023-05-22T05:06:34.865Z,2.40
2023-05-22T05:09:07.111Z,1.95
2023-05-22T05:11:35.454Z,2.05
2023-05-22T05:14:04.187Z,2.00
2023-05-22T05:16:31.818Z,2.20
2023-05-22T05:18:59.396Z,2.30
2023-05-22T05:21:28.092Z,2.45
2023-05-22T05:23:57.231Z,2.53
2023-05-22T05:26:24.851Z,2.05
2023-05-22T05:28:53.342Z,2.30
2023-05-22T05:31:20.990Z,2.80
2023-05-22T05:33:49.873Z,2.15
2023-05-22T05:36:20.531Z,2.60
2023-05-22T05:38:48.804Z,2.42
2023-05-22T05:41:16.837Z,1.77
2023-05-22T05:43:45.700Z,2.12
2023-05-22T05:46:13.400Z,2.17
2023-05-22T05:48:41.939Z,2.28
2023-05-22T05:51:10.171Z,2.00
2023-05-22T05:53:37.940Z,2.20
2023-05-22T05:56:07.215Z,1.98
2023-05-22T05:58:35.408Z,2.40
2023-05-22T06:01:04.456Z,2.25
2023-05-22T06:03:32.864Z,2.17
2023-05-22T06:06:01.077Z,2.17
2023-05-22T06:08:34.637Z,2.28
2023-05-22T06:11:02.431Z,2.00
2023-05-22T06:13:30.818Z,2.00
2023-05-22T06:16:01.639Z,2.12
2023-05-22T06:18:30.561Z,2.83
2023-05-22T06:20:59.104Z,2.22
2023-05-22T06:23:27.177Z,2.08
2023-05-22T06:25:55.638Z,2.00
2023-05-22T06:28:24.109Z,2.20
2023-05-22T06:30:52.014Z,2.30
2023-05-22T06:33:20.247Z,1.95
2023-05-22T06:35:48.443Z,2.10
2023-05-22T06:38:16.775Z,2.20
2023-05-22T06:40:44.691Z,2.10
2023-05-22T06:43:13.014Z,1.90
2023-05-22T06:45:41.001Z,2.03
2023-05-22T06:48:12.286Z,2.10
2023-05-22T06:50:41.545Z,1.98
2023-05-22T06:53:09.108Z,1.95
2023-05-22T06:55:37.043Z,1.80
2023-05-22T06:58:05.733Z,2.42
2023-05-22T07:00:34.188Z,2.40
2023-05-22T07:03:02.678Z,1.98
2023-05-22T07:05:30.818Z,2.10
2023-05-22T07:07:59.050Z,1.73
2023-05-22T07:10:27.851Z,2.25
2023-05-22T07:12:58.193Z,1.65
2023-05-22T07:15:25.868Z,1.55
2023-05-22T07:17:53.949Z,1.80
2023-05-22T07:20:21.886Z,1.90
2023-05-22T07:22:51.324Z,1.92
2023-05-22T07:25:19.658Z,1.80
2023-05-22T07:27:47.524Z,2.10
2023-05-22T07:30:15.367Z,2.30
2023-05-22T07:32:43.026Z,2.70
2023-05-22T07:35:11.813Z,2.20
2023-05-22T07:37:40.062Z,1.85
2023-05-22T07:40:09.752Z,2.20
2023-05-22T07:42:38.380Z,2.40
2023-05-22T07:45:07.416Z,1.93
2023-05-22T07:47:35.001Z,2.15
2023-05-22T07:50:05.863Z,1.87
2023-05-22T07:52:34.366Z,2.03
2023-05-22T07:55:02.469Z,2.28
2023-05-22T07:57:32.887Z,2.03
2023-05-22T08:00:06.519Z,2.42
2023-05-22T08:02:41.697Z,2.12
2023-05-22T08:05:10.106Z,2.20
2023-05-22T08:07:37.815Z,2.85
2023-05-22T08:10:14.295Z,2.20
2023-05-22T08:12:42.248Z,2.30
2023-05-22T08:15:10.286Z,1.90
2023-05-22T08:17:38.323Z,2.03
2023-05-22T08:20:07.362Z,2.08
2023-05-22T08:22:35.432Z,1.80
2023-05-22T08:25:03.057Z,2.15
2023-05-22T08:27:30.950Z,2.00
2023-05-22T08:29:58.489Z,2.20
2023-05-22T08:32:26.090Z,2.42
2023-05-22T08:34:53.953Z,2.63
2023-05-22T08:37:21.570Z,2.20
2023-05-22T08:39:49.050Z,2.55
2023-05-22T08:42:16.894Z,1.90
2023-05-22T08:44:44.451Z,2.42
2023-05-22T08:47:14.104Z,2.63
2023-05-22T08:49:42.376Z,2.85
2023-05-22T08:52:13.588Z,2.85
2023-05-22T08:54:45.262Z,2.40
2023-05-22T08:57:13.256Z,2.42
2023-05-22T08:59:41.465Z,2.60
2023-05-22T09:02:09.999Z,2.47
2023-05-22T09:04:37.867Z,2.33
2023-05-22T09:07:05.971Z,2.62
2023-05-22T09:09:37.879Z,2.80
2023-05-22T09:12:09.145Z,2.80
2023-05-22T09:14:43.346Z,2.80
2023-05-22T09:17:15.152Z,3.08
2023-05-22T09:19:46.363Z,2.65
2023-05-22T09:22:14.615Z,2.78
2023-05-22T09:24:43.490Z,2.60
2023-05-22T09:27:11.923Z,3.15
2023-05-22T09:29:49.888Z,2.60
2023-05-22T09:32:18.390Z,2.53
2023-05-22T09:34:47.073Z,2.97
2023-05-22T09:37:15.262Z,2.70
2023-05-22T09:39:47.787Z,2.58
2023-05-22T09:42:17.521Z,3.12
2023-05-22T09:44:49.437Z,2.80
2023-05-22T09:47:17.702Z,2.70
2023-05-22T09:49:46.016Z,2.73
2023-05-22T09:52:13.954Z,2.83
2023-05-22T09:54:47.627Z,2.50
2023-05-22T09:57:20.636Z,3.10
2023-05-22T09:59:54.604Z,3.20
2023-05-22T10:02:26.848Z,3.57
2023-05-22T10:04:55.043Z,2.80
2023-05-22T10:07:41.376Z,2.85
2023-05-22T10:10:33.854Z,3.17
2023-05-22T10:13:08.152Z,3.30
2023-05-22T10:15:36.576Z,3.17
2023-05-22T10:18:04.457Z,3.12
2023-05-22T10:20:32.221Z,3.00
2023-05-22T10:23:03.281Z,3.28
2023-05-22T10:25:30.872Z,3.03
2023-05-22T10:27:59.175Z,3.20
2023-05-22T10:30:45.945Z,3.20
2023-05-22T10:33:23.159Z,2.65
2023-05-22T10:36:19.730Z,3.28
2023-05-22T10:39:06.480Z,3.05
2023-05-22T10:41:34.992Z,3.67
2023-05-22T10:44:02.795Z,3.90
2023-05-22T10:46:33.971Z,2.95
2023-05-22T10:49:02.276Z,3.15
2023-05-22T10:51:30.942Z,3.37
2023-05-22T10:54:00.930Z,3.27
2023-05-22T10:56:35.990Z,3.62
2023-05-22T10:59:06.315Z,2.90
2023-05-22T11:01:40.868Z,3.12
2023-05-22T11:04:08.683Z,3.42
2023-05-22T11:07:05.478Z,4.13
2023-05-22T11:09:50.100Z,3.17
2023-05-22T11:12:25.119Z,3.10
2023-05-22T11:15:08.597Z,3.60
2023-05-22T11:17:39.448Z,3.28
2023-05-22T11:20:24.367Z,3.50
2023-05-22T11:23:03.967Z,3.12
2023-05-22T11:25:33.501Z,3.85
2023-05-22T11:28:05.957Z,3.58
2023-05-22T11:30:34.403Z,3.10
2023-05-22T11:33:02.576Z,3.50
2023-05-22T11:35:30.224Z,3.35
2023-05-22T11:37:58.926Z,3.65
2023-05-22T11:40:29.628Z,3.35
2023-05-22T11:42:57.464Z,3.67
2023-05-22T11:45:25.921Z,3.83
2023-05-22T11:47:53.961Z,3.87
2023-05-22T11:50:40.269Z,3.50
2023-05-22T11:53:09.620Z,3.47
2023-05-22T11:55:37.134Z,3.20
2023-05-22T11:58:04.730Z,3.27
2023-05-22T12:00:33.159Z,4.00
2023-05-22T12:03:01.373Z,3.50
2023-05-22T12:05:32.146Z,3.70
2023-05-22T12:08:00.015Z,3.00
2023-05-22T12:10:28.008Z,4.00
2023-05-22T12:12:55.550Z,4.05
2023-05-22T12:15:24.495Z,3.92
2023-05-22T12:17:55.393Z,3.85
2023-05-22T12:20:23.260Z,3.05
2023-05-22T12:22:51.093Z,3.17
2023-05-22T12:25:20.149Z,3.90
2023-05-22T12:27:47.906Z,3.00
2023-05-22T12:30:16.231Z,3.70
2023-05-22T12:32:49.012Z,3.50
2023-05-22T12:35:17.412Z,3.50
2023-05-22T12:37:50.275Z,3.50
2023-05-22T12:40:18.353Z,3.72
2023-05-22T12:42:47.631Z,3.45
2023-05-22T12:45:15.440Z,3.45
2023-05-22T12:47:43.174Z,3.53
2023-05-22T12:50:11.337Z,3.40
2023-05-22T12:52:38.879Z,4.32
2023-05-22T12:55:07.218Z,3.75
2023-05-22T12:57:35.198Z,3.33
2023-05-22T13:00:04.476Z,3.40
2023-05-22T13:02:32.237Z,3.85
2023-05-22T13:05:00.181Z,3.72
2023-05-22T13:07:27.799Z,3.75
2023-05-22T13:09:55.311Z,2.83
2023-05-22T13:12:23.653Z,3.70
2023-05-22T13:14:51.268Z,3.80
2023-05-22T13:17:18.819Z,3.72
2023-05-22T13:19:46.652Z,3.45
2023-05-22T13:22:14.834Z,3.22
2023-05-22T13:24:42.432Z,3.73
2023-05-22T13:27:10.467Z,3.60
2023-05-22T13:29:37.986Z,3.45
2023-05-22T13:32:05.929Z,3.58
2023-05-22T13:34:33.896Z,3.20
2023-05-22T13:37:01.623Z,3.47
2023-05-22T13:39:29.089Z,3.78
2023-05-22T13:41:56.976Z,3.50
2023-05-22T13:44:25.693Z,3.90
2023-05-22T13:46:53.476Z,3.22
2023-05-22T13:49:21.312Z,3.33
2023-05-22T13:51:48.889Z,3.55
2023-05-22T13:54:16.614Z,3.15
2023-05-22T13:56:44.480Z,2.95
2023-05-22T13:59:12.155Z,3.10
2023-05-22T14:01:39.762Z,3.37
2023-05-22T14:04:07.589Z,3.33
2023-05-22T14:06:35.177Z,3.62
2023-05-22T14:09:03.516Z,3.65
2023-05-22T14:11:31.330Z,3.67
2023-05-22T14:13:58.816Z,3.27
2023-05-22T14:16:26.581Z,3.70
2023-05-22T14:18:54.577Z,3.35
2023-05-22T14:21:22.134Z,3.58
2023-05-22T14:23:49.625Z,3.80
2023-05-22T14:26:17.494Z,3.63
2023-05-22T14:28:45.548Z,3.35
2023-05-22T14:31:13.117Z,3.47
2023-05-22T14:33:40.953Z,3.12
2023-05-22T14:36:08.571Z,3.62
2023-05-22T14:38:36.397Z,3.53
2023-05-22T14:41:04.351Z,2.83
2023-05-22T14:43:32.000Z,3.28
2023-05-22T14:45:59.989Z,3.22
2023-05-22T14:48:29.482Z,2.70
2023-05-22T14:50:57.199Z,3.10
2023-05-22T14:53:24.765Z,3.42
2023-05-22T14:55:52.682Z,3.53
2023-05-22T14:58:20.254Z,3.25
2023-05-22T15:00:47.885Z,3.22
2023-05-22T15:03:16.809Z,3.00
2023-05-22T15:05:44.681Z,3.15
2023-05-22T15:08:12.138Z,3.25
2023-05-22T15:10:40.069Z,3.03
2023-05-22T15:13:07.680Z,3.12
2023-05-22T15:15:35.213Z,2.70
2023-05-22T15:18:04.813Z,3.20
2023-05-22T15:20:32.504Z,2.97
2023-05-22T15:23:00.968Z,3.60
2023-05-22T15:25:28.998Z,2.80
2023-05-22T15:27:57.301Z,3.10
2023-05-22T15:30:24.886Z,3.65
2023-05-22T15:32:52.722Z,3.17
2023-05-22T15:35:20.348Z,2.67
2023-05-22T15:37:47.904Z,3.65
2023-05-22T15:40:18.308Z,2.73
2023-05-22T15:42:46.013Z,2.83
2023-05-22T15:45:13.499Z,2.97
2023-05-22T15:47:42.525Z,2.28
2023-05-22T15:50:10.612Z,3.00
2023-05-22T15:52:39.229Z,3.43
2023-05-22T15:55:07.407Z,3.35
2023-05-22T15:57:35.008Z,2.83
2023-05-22T16:00:02.759Z,2.97
2023-05-22T16:02:31.829Z,3.22
2023-05-22T16:04:59.713Z,3.00
2023-05-22T16:07:27.471Z,2.62
2023-05-22T16:09:55.017Z,3.08
2023-05-22T16:12:22.830Z,2.85
2023-05-22T16:14:50.925Z,2.80
2023-05-22T16:17:18.490Z,3.07
2023-05-22T16:19:46.296Z,2.92
2023-05-22T16:22:13.855Z,2.83
2023-05-22T16:24:41.593Z,2.90
2023-05-22T16:27:09.414Z,2.95
2023-05-22T16:29:36.963Z,3.10
2023-05-22T16:32:04.884Z,3.03
2023-05-22T16:34:33.941Z,2.60
2023-05-22T16:37:01.510Z,2.78
2023-05-22T16:39:29.145Z,3.15
2023-05-22T16:41:57.059Z,3.03
2023-05-22T16:44:24.635Z,3.10
2023-05-22T16:46:52.313Z,3.10
2023-05-22T16:49:20.545Z,3.72
2023-05-22T16:51:48.127Z,3.17
2023-05-22T16:54:15.700Z,3.20
2023-05-22T16:56:43.712Z,3.40
2023-05-22T16:59:11.286Z,2.90
2023-05-22T17:01:39.019Z,3.28
2023-05-22T17:04:08.427Z,2.90
2023-05-22T17:06:36.216Z,3.37
2023-05-22T17:09:03.913Z,2.92
2023-05-22T17:11:31.745Z,3.40
2023-05-22T17:13:59.303Z,3.53
2023-05-22T17:16:26.868Z,2.92
2023-05-22T17:18:55.150Z,2.90
2023-05-22T17:21:22.993Z,3.00
2023-05-22T17:23:50.632Z,3.17
2023-05-22T17:26:18.465Z,3.40
2023-05-22T17:28:46.442Z,3.08
2023-05-22T17:31:13.956Z,3.30
2023-05-22T17:33:43.354Z,3.40
2023-05-22T17:36:11.109Z,3.30
2023-05-22T17:38:38.707Z,3.30
2023-05-22T17:41:06.575Z,3.15
2023-05-22T17:43:38.296Z,3.00
2023-05-22T17:46:06.377Z,2.85
2023-05-22T17:48:34.642Z,3.12
2023-05-22T17:51:02.202Z,3.60
2023-05-22T17:53:34.557Z,2.85
2023-05-22T17:56:02.863Z,3.10
2023-05-22T17:58:30.763Z,3.58
2023-05-22T18:00:58.262Z,3.10
2023-05-22T18:03:26.616Z,3.08
2023-05-22T18:05:54.377Z,2.78
2023-05-22T18:08:22.072Z,3.00
2023-05-22T18:10:50.022Z,3.12
2023-05-22T18:13:19.279Z,3.12
2023-05-22T18:15:48.374Z,3.10
2023-05-22T18:18:16.671Z,3.30
2023-05-22T18:20:46.256Z,3.53
2023-05-22T18:23:14.031Z,3.50
2023-05-22T18:25:42.195Z,3.75
2023-05-22T18:28:10.085Z,3.83
2023-05-22T18:30:38.065Z,4.10
2023-05-22T18:33:06.654Z,3.27
2023-05-22T18:35:34.364Z,3.42
2023-05-22T18:38:02.170Z,3.45
2023-05-22T18:40:30.041Z,3.08
2023-05-22T18:42:57.807Z,3.35
2023-05-22T18:45:25.535Z,3.47
2023-05-22T18:47:53.869Z,3.50
2023-05-22T18:50:23.574Z,3.25
2023-05-22T18:52:51.554Z,3.40
2023-05-22T18:55:19.630Z,3.75
2023-05-22T18:57:47.827Z,3.47
2023-05-22T19:00:16.269Z,4.22
2023-05-22T19:02:44.981Z,2.97
2023-05-22T19:05:13.150Z,3.85
2023-05-22T19:07:41.283Z,3.85
2023-05-22T19:10:09.760Z,3.23
2023-05-22T19:12:37.815Z,3.40
2023-05-22T19:15:06.994Z,3.37
2023-05-22T19:17:35.939Z,3.25
2023-05-22T19:20:07.373Z,3.78
2023-05-22T19:22:36.214Z,3.53
2023-05-22T19:25:04.633Z,3.05
2023-05-22T19:27:32.863Z,3.40
2023-05-22T19:30:05.289Z,3.35
2023-05-22T19:32:36.300Z,3.17
2023-05-22T19:35:08.573Z,3.40
2023-05-22T19:37:37.546Z,3.60
2023-05-22T19:40:09.739Z,3.15
2023-05-22T19:42:39.870Z,3.33
2023-05-22T19:45:08.953Z,3.35
2023-05-22T19:47:36.995Z,3.30
2023-05-22T19:50:06.059Z,3.55
2023-05-22T19:52:35.019Z,3.15
2023-05-22T19:55:03.510Z,3.55
2023-05-22T19:57:35.542Z,3.42
2023-05-22T20:00:28.350Z,3.00
2023-05-22T20:02:57.965Z,3.50
2023-05-22T20:05:26.864Z,3.50
2023-05-22T20:07:54.736Z,3.30
2023-05-22T20:10:23.943Z,3.47
2023-05-22T20:12:54.694Z,3.40
2023-05-22T20:15:23.973Z,3.15
2023-05-22T20:30:26.262Z,3.45
2023-05-22T20:32:54.531Z,3.55
2023-05-22T20:35:22.163Z,3.27
2023-05-22T20:37:50.418Z,3.17
2023-05-22T20:40:18.533Z,3.67
2023-05-22T20:42:46.426Z,3.90
2023-05-22T20:45:14.996Z,4.37
2023-05-22T20:47:44.315Z,3.60
2023-05-22T20:50:11.941Z,3.08
2023-05-22T20:52:39.506Z,3.58
2023-05-22T20:55:07.794Z,3.12
2023-05-22T20:57:35.677Z,2.80
2023-05-22T21:00:05.525Z,3.53
2023-05-22T21:02:33.429Z,2.87
2023-05-22T21:05:00.979Z,3.25
2023-05-22T21:07:28.547Z,3.40
2023-05-22T21:09:56.318Z,3.00
2023-05-22T21:12:23.802Z,2.67
2023-05-22T21:14:51.536Z,3.22
2023-05-22T21:17:19.422Z,3.20
2023-05-22T21:19:47.076Z,2.92
2023-05-22T21:22:14.603Z,2.87
2023-05-22T21:24:42.407Z,3.17
2023-05-22T21:27:09.974Z,3.00
2023-05-22T21:29:37.505Z,2.83
2023-05-22T21:32:05.753Z,2.70
2023-05-22T21:34:33.264Z,2.50
2023-05-22T21:37:00.774Z,2.80
2023-05-22T21:39:28.654Z,2.60
2023-05-22T21:41:56.162Z,2.42
2023-05-22T21:44:23.630Z,2.40
2023-05-22T21:46:51.464Z,2.40
2023-05-22T21:49:19.016Z,2.60
2023-05-22T21:51:46.525Z,3.00
2023-05-22T21:54:14.338Z,2.50
2023-05-22T21:56:41.885Z,2.67
2023-05-22T21:59:09.516Z,2.45
2023-05-22T22:01:37.390Z,1.87
2023-05-22T22:04:05.357Z,2.70
2023-05-22T22:06:32.993Z,2.55
2023-05-22T22:09:00.651Z,2.45
2023-05-22T22:11:31.237Z,2.70
2023-05-22T22:13:58.788Z,2.53
2023-05-22T22:16:26.580Z,2.40
2023-05-22T22:18:54.361Z,2.80
2023-05-22T22:21:21.890Z,2.12
2023-05-22T22:23:49.494Z,2.70
2023-05-22T22:26:20.344Z,2.53
2023-05-22T22:28:47.902Z,2.47
2023-05-22T22:31:15.694Z,2.37
2023-05-22T22:33:43.526Z,2.65
2023-05-22T22:36:11.224Z,2.87
2023-05-22T22:38:38.899Z,2.60
2023-05-22T22:41:09.266Z,2.97
2023-05-22T22:43:36.817Z,2.78
2023-05-22T22:46:04.433Z,2.78
2023-05-22T22:48:32.223Z,2.70
2023-05-22T22:50:59.807Z,2.63
2023-05-22T22:53:27.305Z,2.40
2023-05-22T22:55:59.349Z,3.00
2023-05-22T22:58:27.010Z,2.53
2023-05-22T23:00:54.826Z,2.95
2023-05-22T23:03:22.493Z,2.53
2023-05-22T23:05:50.180Z,2.65
2023-05-22T23:08:18.268Z,3.05
2023-05-22T23:10:46.121Z,2.67
2023-05-22T23:13:13.625Z,3.03
2023-05-22T23:15:41.646Z,3.00
2023-05-22T23:18:09.573Z,2.83
2023-05-22T23:20:37.132Z,3.28
2023-05-22T23:23:04.961Z,3.17
2023-05-22T23:25:32.518Z,3.00
2023-05-22T23:28:00.114Z,3.00
2023-05-22T23:30:27.884Z,3.30
2023-05-22T23:32:55.449Z,2.90
2023-05-22T23:35:22.959Z,2.90
2023-05-22T23:37:50.884Z,3.10
2023-05-22T23:40:18.462Z,3.00
2023-05-22T23:42:46.013Z,2.90
2023-05-22T23:45:13.836Z,3.08
2023-05-22T23:47:41.720Z,3.20
2023-05-22T23:50:09.802Z,3.40
2023-05-22T23:52:37.818Z,3.10
2023-05-22T23:55:06.666Z,2.70
2023-05-22T23:57:34.214Z,3.28
